Weather at Vranje Heliport

Public forecast

Using degrees Celsius for public forecast. Weather courtesy of forecast.io.

Closest aviation weather report (METAR) to Vranje Heliport

Closest report is Skopje International Airport, 37.3 nm (69.0 km) SSW.

2024/05/27 21:20 (retrieved 29 minutes ago)

LWSK 272120Z 12003KT 090V160 9999 SCT050 14/11 Q1016 NOSIG

Closest aviation forecast (TAF) to Vranje Heliport

Closest forecast is Skopje International Airport, 37.3 nm (69.0 km) SSW.

2024/05/27 21:21 (retrieved 28 minutes ago)

TAF LWSK 272020Z 2721/2821 VRB02KT 9999 FEW050